sensor_id;sensor_type;location;lat;lon;timestamp;P1;durP1;ratioP1;P2;durP2;ratioP2
15667;SDS011;7934;48.710;9.024;2024-03-08T00:01:41;36.80;;;20.40;;
15667;SDS011;7934;48.710;9.024;2024-03-08T00:04:10;38.93;;;21.50;;
15667;SDS011;7934;48.710;9.024;2024-03-08T00:06:40;36.60;;;20.30;;
15667;SDS011;7934;48.710;9.024;2024-03-08T00:09:12;39.73;;;19.87;;
15667;SDS011;7934;48.710;9.024;2024-03-08T00:11:41;48.97;;;21.67;;
15667;SDS011;7934;48.710;9.024;2024-03-08T00:14:11;40.43;;;20.73;;
15667;SDS011;7934;48.710;9.024;2024-03-08T00:16:52;41.80;;;21.17;;
15667;SDS011;7934;48.710;9.024;2024-03-08T00:19:25;39.67;;;21.37;;
15667;SDS011;7934;48.710;9.024;2024-03-08T00:22:03;37.33;;;20.17;;
15667;SDS011;7934;48.710;9.024;2024-03-08T00:24:43;42.00;;;21.40;;
15667;SDS011;7934;48.710;9.024;2024-03-08T00:27:10;37.83;;;20.80;;
15667;SDS011;7934;48.710;9.024;2024-03-08T00:29:48;38.30;;;19.10;;
15667;SDS011;7934;48.710;9.024;2024-03-08T00:32:16;36.20;;;19.10;;
15667;SDS011;7934;48.710;9.024;2024-03-08T00:34:50;42.23;;;22.07;;
15667;SDS011;7934;48.710;9.024;2024-03-08T00:37:18;39.90;;;21.27;;
15667;SDS011;7934;48.710;9.024;2024-03-08T00:39:50;31.97;;;17.73;;
15667;SDS011;7934;48.710;9.024;2024-03-08T00:42:18;33.37;;;18.23;;
15667;SDS011;7934;48.710;9.024;2024-03-08T00:44:55;35.97;;;19.53;;
15667;SDS011;7934;48.710;9.024;2024-03-08T00:47:26;34.07;;;19.30;;
15667;SDS011;7934;48.710;9.024;2024-03-08T00:49:53;35.20;;;19.87;;
15667;SDS011;7934;48.710;9.024;2024-03-08T00:52:21;40.87;;;21.50;;
15667;SDS011;7934;48.710;9.024;2024-03-08T00:54:56;39.07;;;21.43;;
15667;SDS011;7934;48.710;9.024;2024-03-08T00:57:32;35.63;;;17.33;;
15667;SDS011;7934;48.710;9.024;2024-03-08T01:00:02;44.07;;;20.77;;
15667;SDS011;7934;48.710;9.024;2024-03-08T01:02:30;40.67;;;20.13;;
15667;SDS011;7934;48.710;9.024;2024-03-08T01:07:57;38.87;;;20.37;;
15667;SDS011;7934;48.710;9.024;2024-03-08T01:10:40;29.67;;;16.23;;
15667;SDS011;7934;48.710;9.024;2024-03-08T01:13:08;44.73;;;20.33;;
15667;SDS011;7934;48.710;9.024;2024-03-08T01:15:50;41.07;;;22.07;;
15667;SDS011;7934;48.710;9.024;2024-03-08T01:18:29;42.03;;;20.83;;
15667;SDS011;7934;48.710;9.024;2024-03-08T01:21:11;35.67;;;20.30;;
15667;SDS011;7934;48.710;9.024;2024-03-08T01:23:39;36.23;;;18.57;;
15667;SDS011;7934;48.710;9.024;2024-03-08T01:26:49;38.20;;;20.97;;
15667;SDS011;7934;48.710;9.024;2024-03-08T01:29:17;38.53;;;21.13;;
15667;SDS011;7934;48.710;9.024;2024-03-08T01:31:51;36.50;;;19.30;;
15667;SDS011;7934;48.710;9.024;2024-03-08T01:34:28;33.27;;;18.27;;
15667;SDS011;7934;48.710;9.024;2024-03-08T01:37:06;38.87;;;19.83;;
15667;SDS011;7934;48.710;9.024;2024-03-08T01:39:34;35.60;;;18.73;;
15667;SDS011;7934;48.710;9.024;2024-03-08T01:42:06;44.27;;;21.57;;
15667;SDS011;7934;48.710;9.024;2024-03-08T01:44:33;41.77;;;20.57;;
15667;SDS011;7934;48.710;9.024;2024-03-08T01:47:01;37.17;;;19.77;;
15667;SDS011;7934;48.710;9.024;2024-03-08T01:49:28;43.87;;;21.57;;
15667;SDS011;7934;48.710;9.024;2024-03-08T01:51:59;38.50;;;20.27;;
15667;SDS011;7934;48.710;9.024;2024-03-08T01:54:26;38.97;;;21.80;;
15667;SDS011;7934;48.710;9.024;2024-03-08T01:56:55;39.73;;;20.03;;
15667;SDS011;7934;48.710;9.024;2024-03-08T01:59:34;34.47;;;19.40;;
15667;SDS011;7934;48.710;9.024;2024-03-08T02:02:01;39.50;;;20.93;;
15667;SDS011;7934;48.710;9.024;2024-03-08T02:05:21;39.97;;;21.30;;
15667;SDS011;7934;48.710;9.024;2024-03-08T02:07:43;34.07;;;18.63;;
15667;SDS011;7934;48.710;9.024;2024-03-08T02:10:17;42.85;;;24.83;;
15667;SDS011;7934;48.710;9.024;2024-03-08T02:12:48;41.70;;;21.83;;
15667;SDS011;7934;48.710;9.024;2024-03-08T02:18:23;36.70;;;19.80;;
15667;SDS011;7934;48.710;9.024;2024-03-08T02:20:57;39.90;;;20.03;;
15667;SDS011;7934;48.710;9.024;2024-03-08T02:23:28;37.03;;;20.63;;
15667;SDS011;7934;48.710;9.024;2024-03-08T02:26:21;33.50;;;19.60;;
15667;SDS011;7934;48.710;9.024;2024-03-08T02:32:14;39.60;;;19.27;;
15667;SDS011;7934;48.710;9.024;2024-03-08T02:34:45;38.27;;;20.03;;
15667;SDS011;7934;48.710;9.024;2024-03-08T02:46:26;36.70;;;18.73;;
15667;SDS011;7934;48.710;9.024;2024-03-08T02:48:59;39.13;;;19.73;;
15667;SDS011;7934;48.710;9.024;2024-03-08T02:51:34;35.60;;;19.83;;
15667;SDS011;7934;48.710;9.024;2024-03-08T02:54:11;36.13;;;18.90;;
15667;SDS011;7934;48.710;9.024;2024-03-08T02:56:51;37.33;;;19.33;;
15667;SDS011;7934;48.710;9.024;2024-03-08T02:59:47;35.50;;;18.83;;
15667;SDS011;7934;48.710;9.024;2024-03-08T03:05:21;35.30;;;17.93;;
15667;SDS011;7934;48.710;9.024;2024-03-08T03:08:02;34.13;;;18.80;;
15667;SDS011;7934;48.710;9.024;2024-03-08T03:10:48;35.37;;;18.67;;
15667;SDS011;7934;48.710;9.024;2024-03-08T03:14:49;35.17;;;19.43;;
15667;SDS011;7934;48.710;9.024;2024-03-08T03:16:55;34.97;;;17.80;;
15667;SDS011;7934;48.710;9.024;2024-03-08T03:29:40;34.70;;;16.77;;
15667;SDS011;7934;48.710;9.024;2024-03-08T03:34:58;25.87;;;12.80;;
15667;SDS011;7934;48.710;9.024;2024-03-08T03:39:23;32.43;;;17.17;;
15667;SDS011;7934;48.710;9.024;2024-03-08T03:44:58;35.43;;;17.63;;
15667;SDS011;7934;48.710;9.024;2024-03-08T03:47:42;32.97;;;18.33;;
15667;SDS011;7934;48.710;9.024;2024-03-08T03:50:24;35.43;;;16.93;;
15667;SDS011;7934;48.710;9.024;2024-03-08T03:53:08;34.93;;;19.03;;
15667;SDS011;7934;48.710;9.024;2024-03-08T03:55:53;40.87;;;18.83;;
15667;SDS011;7934;48.710;9.024;2024-03-08T03:58:27;36.50;;;18.00;;
15667;SDS011;7934;48.710;9.024;2024-03-08T04:01:01;34.53;;;16.63;;
15667;SDS011;7934;48.710;9.024;2024-03-08T04:03:31;37.57;;;18.93;;
15667;SDS011;7934;48.710;9.024;2024-03-08T04:06:07;30.37;;;16.17;;
15667;SDS011;7934;48.710;9.024;2024-03-08T04:09:00;35.60;;;18.03;;
15667;SDS011;7934;48.710;9.024;2024-03-08T04:11:34;41.83;;;19.43;;
15667;SDS011;7934;48.710;9.024;2024-03-08T04:23:30;36.67;;;18.33;;
15667;SDS011;7934;48.710;9.024;2024-03-08T04:26:23;34.63;;;19.03;;
15667;SDS011;7934;48.710;9.024;2024-03-08T04:32:47;38.10;;;18.47;;
15667;SDS011;7934;48.710;9.024;2024-03-08T04:48:29;36.33;;;18.50;;
15667;SDS011;7934;48.710;9.024;2024-03-08T04:55:21;41.27;;;19.40;;
15667;SDS011;7934;48.710;9.024;2024-03-08T05:03:47;44.00;;;20.53;;
15667;SDS011;7934;48.710;9.024;2024-03-08T05:09:28;36.77;;;19.70;;
15667;SDS011;7934;48.710;9.024;2024-03-08T05:14:03;39.83;;;19.90;;
15667;SDS011;7934;48.710;9.024;2024-03-08T05:15:02;40.30;;;19.93;;
15667;SDS011;7934;48.710;9.024;2024-03-08T05:17:54;46.03;;;22.50;;
15667;SDS011;7934;48.710;9.024;2024-03-08T05:26:26;38.40;;;18.93;;
15667;SDS011;7934;48.710;9.024;2024-03-08T05:29:03;42.57;;;21.47;;
15667;SDS011;7934;48.710;9.024;2024-03-08T05:31:35;44.80;;;21.33;;
15667;SDS011;7934;48.710;9.024;2024-03-08T05:34:07;38.57;;;21.20;;
15667;SDS011;7934;48.710;9.024;2024-03-08T05:36:35;40.13;;;20.70;;
15667;SDS011;7934;48.710;9.024;2024-03-08T05:39:02;42.50;;;20.57;;
15667;SDS011;7934;48.710;9.024;2024-03-08T05:41:34;38.37;;;20.30;;
15667;SDS011;7934;48.710;9.024;2024-03-08T05:44:02;42.27;;;21.37;;
15667;SDS011;7934;48.710;9.024;2024-03-08T05:46:29;41.40;;;20.57;;
15667;SDS011;7934;48.710;9.024;2024-03-08T05:48:56;40.77;;;22.03;;
15667;SDS011;7934;48.710;9.024;2024-03-08T05:51:24;43.70;;;21.70;;
15667;SDS011;7934;48.710;9.024;2024-03-08T05:53:52;45.80;;;22.33;;
15667;SDS011;7934;48.710;9.024;2024-03-08T05:56:20;40.87;;;21.77;;
15667;SDS011;7934;48.710;9.024;2024-03-08T05:58:50;42.63;;;20.77;;
15667;SDS011;7934;48.710;9.024;2024-03-08T06:01:18;43.10;;;22.23;;
15667;SDS011;7934;48.710;9.024;2024-03-08T06:03:48;37.47;;;21.33;;
15667;SDS011;7934;48.710;9.024;2024-03-08T06:06:15;47.37;;;23.10;;
15667;SDS011;7934;48.710;9.024;2024-03-08T06:08:43;53.53;;;23.30;;
15667;SDS011;7934;48.710;9.024;2024-03-08T06:11:12;42.40;;;21.80;;
15667;SDS011;7934;48.710;9.024;2024-03-08T06:13:40;43.70;;;22.43;;
15667;SDS011;7934;48.710;9.024;2024-03-08T06:16:08;51.23;;;24.03;;
15667;SDS011;7934;48.710;9.024;2024-03-08T06:18:36;45.87;;;22.57;;
15667;SDS011;7934;48.710;9.024;2024-03-08T06:21:04;45.90;;;21.43;;
15667;SDS011;7934;48.710;9.024;2024-03-08T06:23:31;45.33;;;22.87;;
15667;SDS011;7934;48.710;9.024;2024-03-08T06:26:02;42.27;;;21.83;;
15667;SDS011;7934;48.710;9.024;2024-03-08T06:28:51;47.90;;;22.03;;
15667;SDS011;7934;48.710;9.024;2024-03-08T06:31:33;47.43;;;22.83;;
15667;SDS011;7934;48.710;9.024;2024-03-08T06:34:07;44.67;;;22.00;;
15667;SDS011;7934;48.710;9.024;2024-03-08T06:36:40;46.87;;;23.93;;
15667;SDS011;7934;48.710;9.024;2024-03-08T06:39:13;52.77;;;25.20;;
15667;SDS011;7934;48.710;9.024;2024-03-08T06:44:56;48.90;;;22.37;;
15667;SDS011;7934;48.710;9.024;2024-03-08T06:47:31;45.80;;;23.83;;
15667;SDS011;7934;48.710;9.024;2024-03-08T06:50:13;47.57;;;23.53;;
15667;SDS011;7934;48.710;9.024;2024-03-08T06:52:41;41.90;;;23.07;;
15667;SDS011;7934;48.710;9.024;2024-03-08T06:55:13;50.77;;;24.47;;
15667;SDS011;7934;48.710;9.024;2024-03-08T06:57:43;43.53;;;23.70;;
15667;SDS011;7934;48.710;9.024;2024-03-08T07:00:14;44.07;;;23.00;;
15667;SDS011;7934;48.710;9.024;2024-03-08T07:02:48;45.60;;;23.27;;
15667;SDS011;7934;48.710;9.024;2024-03-08T07:05:25;49.43;;;22.57;;
15667;SDS011;7934;48.710;9.024;2024-03-08T07:14:05;41.90;;;20.63;;
15667;SDS011;7934;48.710;9.024;2024-03-08T07:16:49;47.70;;;23.03;;
15667;SDS011;7934;48.710;9.024;2024-03-08T07:25:52;43.07;;;21.80;;
15667;SDS011;7934;48.710;9.024;2024-03-08T07:34:20;34.67;;;21.23;;
15667;SDS011;7934;48.710;9.024;2024-03-08T07:36:48;36.67;;;23.50;;
15667;SDS011;7934;48.710;9.024;2024-03-08T07:39:21;39.07;;;22.37;;
15667;SDS011;7934;48.710;9.024;2024-03-08T07:41:50;30.77;;;19.40;;
15667;SDS011;7934;48.710;9.024;2024-03-08T07:44:17;33.28;;;21.17;;
15667;SDS011;7934;48.710;9.024;2024-03-08T07:46:45;35.27;;;19.70;;
15667;SDS011;7934;48.710;9.024;2024-03-08T07:49:12;32.80;;;19.70;;
15667;SDS011;7934;48.710;9.024;2024-03-08T07:51:43;30.73;;;18.13;;
15667;SDS011;7934;48.710;9.024;2024-03-08T07:54:10;35.83;;;19.23;;
15667;SDS011;7934;48.710;9.024;2024-03-08T07:56:38;34.63;;;18.57;;
15667;SDS011;7934;48.710;9.024;2024-03-08T07:59:07;34.97;;;18.03;;
15667;SDS011;7934;48.710;9.024;2024-03-08T08:01:36;30.93;;;18.53;;
15667;SDS011;7934;48.710;9.024;2024-03-08T08:04:04;30.57;;;17.50;;
15667;SDS011;7934;48.710;9.024;2024-03-08T08:06:31;29.20;;;18.50;;
15667;SDS011;7934;48.710;9.024;2024-03-08T08:09:00;34.57;;;19.23;;
15667;SDS011;7934;48.710;9.024;2024-03-08T08:11:31;30.93;;;18.13;;
15667;SDS011;7934;48.710;9.024;2024-03-08T08:14:12;30.97;;;17.60;;
15667;SDS011;7934;48.710;9.024;2024-03-08T08:16:42;31.52;;;20.27;;
15667;SDS011;7934;48.710;9.024;2024-03-08T08:19:16;31.50;;;17.63;;
15667;SDS011;7934;48.710;9.024;2024-03-08T08:22:08;26.73;;;16.60;;
15667;SDS011;7934;48.710;9.024;2024-03-08T08:24:45;29.67;;;17.30;;
15667;SDS011;7934;48.710;9.024;2024-03-08T08:30:10;26.77;;;16.53;;
15667;SDS011;7934;48.710;9.024;2024-03-08T08:32:40;28.33;;;17.20;;
15667;SDS011;7934;48.710;9.024;2024-03-08T08:35:08;27.67;;;16.73;;
15667;SDS011;7934;48.710;9.024;2024-03-08T08:37:38;31.30;;;17.00;;
15667;SDS011;7934;48.710;9.024;2024-03-08T08:40:05;28.27;;;16.17;;
15667;SDS011;7934;48.710;9.024;2024-03-08T08:42:35;29.70;;;16.43;;
15667;SDS011;7934;48.710;9.024;2024-03-08T08:45:03;32.60;;;16.20;;
15667;SDS011;7934;48.710;9.024;2024-03-08T08:47:34;30.07;;;17.03;;
15667;SDS011;7934;48.710;9.024;2024-03-08T08:50:01;32.83;;;17.43;;
15667;SDS011;7934;48.710;9.024;2024-03-08T08:52:29;28.83;;;14.13;;
15667;SDS011;7934;48.710;9.024;2024-03-08T08:55:11;26.23;;;15.27;;
15667;SDS011;7934;48.710;9.024;2024-03-08T08:57:39;26.53;;;17.27;;
15667;SDS011;7934;48.710;9.024;2024-03-08T09:00:07;27.63;;;16.10;;
15667;SDS011;7934;48.710;9.024;2024-03-08T09:02:41;27.30;;;16.23;;
15667;SDS011;7934;48.710;9.024;2024-03-08T09:05:08;27.30;;;16.20;;
15667;SDS011;7934;48.710;9.024;2024-03-08T09:07:36;27.77;;;17.00;;
15667;SDS011;7934;48.710;9.024;2024-03-08T09:10:04;25.97;;;15.77;;
15667;SDS011;7934;48.710;9.024;2024-03-08T09:12:31;23.83;;;14.57;;
15667;SDS011;7934;48.710;9.024;2024-03-08T09:14:58;24.40;;;14.80;;
15667;SDS011;7934;48.710;9.024;2024-03-08T09:17:26;26.67;;;16.43;;
15667;SDS011;7934;48.710;9.024;2024-03-08T09:19:54;28.43;;;16.47;;
15667;SDS011;7934;48.710;9.024;2024-03-08T09:22:23;27.30;;;16.40;;
15667;SDS011;7934;48.710;9.024;2024-03-08T09:24:50;27.07;;;16.87;;
15667;SDS011;7934;48.710;9.024;2024-03-08T09:27:17;29.73;;;16.20;;
15667;SDS011;7934;48.710;9.024;2024-03-08T09:29:44;26.70;;;16.43;;
15667;SDS011;7934;48.710;9.024;2024-03-08T09:32:11;30.00;;;16.10;;
15667;SDS011;7934;48.710;9.024;2024-03-08T09:34:42;26.07;;;14.73;;
15667;SDS011;7934;48.710;9.024;2024-03-08T09:37:10;25.03;;;15.30;;
15667;SDS011;7934;48.710;9.024;2024-03-08T09:39:38;31.33;;;16.07;;
15667;SDS011;7934;48.710;9.024;2024-03-08T09:42:05;23.63;;;14.90;;
15667;SDS011;7934;48.710;9.024;2024-03-08T09:44:41;21.83;;;14.07;;
15667;SDS011;7934;48.710;9.024;2024-03-08T09:47:17;22.03;;;14.83;;
15667;SDS011;7934;48.710;9.024;2024-03-08T09:49:45;23.07;;;13.97;;
15667;SDS011;7934;48.710;9.024;2024-03-08T09:52:19;24.10;;;15.97;;
15667;SDS011;7934;48.710;9.024;2024-03-08T09:54:52;21.97;;;13.93;;
15667;SDS011;7934;48.710;9.024;2024-03-08T09:57:35;26.63;;;15.23;;
15667;SDS011;7934;48.710;9.024;2024-03-08T10:00:03;25.57;;;15.40;;
15667;SDS011;7934;48.710;9.024;2024-03-08T10:02:44;21.53;;;13.17;;
15667;SDS011;7934;48.710;9.024;2024-03-08T10:05:12;26.20;;;13.83;;
15667;SDS011;7934;48.710;9.024;2024-03-08T10:10:34;24.27;;;14.27;;
15667;SDS011;7934;48.710;9.024;2024-03-08T10:13:05;20.20;;;13.60;;
15667;SDS011;7934;48.710;9.024;2024-03-08T10:15:37;20.40;;;13.83;;
15667;SDS011;7934;48.710;9.024;2024-03-08T10:18:17;20.87;;;13.57;;
15667;SDS011;7934;48.710;9.024;2024-03-08T10:23:29;24.30;;;13.97;;
15667;SDS011;7934;48.710;9.024;2024-03-08T10:28:45;22.23;;;14.60;;
15667;SDS011;7934;48.710;9.024;2024-03-08T10:31:15;23.37;;;14.60;;
15667;SDS011;7934;48.710;9.024;2024-03-08T10:33:44;21.50;;;13.93;;
15667;SDS011;7934;48.710;9.024;2024-03-08T10:36:21;18.57;;;12.50;;
15667;SDS011;7934;48.710;9.024;2024-03-08T10:38:51;18.83;;;11.67;;
15667;SDS011;7934;48.710;9.024;2024-03-08T10:41:18;20.47;;;12.93;;
15667;SDS011;7934;48.710;9.024;2024-03-08T10:43:51;19.10;;;13.57;;
15667;SDS011;7934;48.710;9.024;2024-03-08T10:46:24;21.30;;;13.37;;
15667;SDS011;7934;48.710;9.024;2024-03-08T10:48:54;19.40;;;13.23;;
15667;SDS011;7934;48.710;9.024;2024-03-08T10:51:23;24.53;;;14.53;;
15667;SDS011;7934;48.710;9.024;2024-03-08T10:54:04;25.73;;;14.23;;
15667;SDS011;7934;48.710;9.024;2024-03-08T10:56:35;22.67;;;12.87;;
15667;SDS011;7934;48.710;9.024;2024-03-08T10:59:04;20.40;;;14.30;;
15667;SDS011;7934;48.710;9.024;2024-03-08T11:01:31;21.70;;;12.73;;
15667;SDS011;7934;48.710;9.024;2024-03-08T11:04:21;21.47;;;13.40;;
15667;SDS011;7934;48.710;9.024;2024-03-08T11:06:55;23.07;;;13.53;;
15667;SDS011;7934;48.710;9.024;2024-03-08T11:09:47;19.93;;;12.43;;
15667;SDS011;7934;48.710;9.024;2024-03-08T11:15:24;19.83;;;13.67;;
15667;SDS011;7934;48.710;9.024;2024-03-08T11:17:58;18.17;;;12.03;;
15667;SDS011;7934;48.710;9.024;2024-03-08T11:20:35;17.63;;;13.07;;
15667;SDS011;7934;48.710;9.024;2024-03-08T11:23:03;19.13;;;12.50;;
15667;SDS011;7934;48.710;9.024;2024-03-08T11:25:34;21.27;;;13.80;;
15667;SDS011;7934;48.710;9.024;2024-03-08T11:28:08;20.77;;;13.47;;
15667;SDS011;7934;48.710;9.024;2024-03-08T11:30:37;19.80;;;13.10;;
15667;SDS011;7934;48.710;9.024;2024-03-08T11:33:04;20.60;;;13.40;;
15667;SDS011;7934;48.710;9.024;2024-03-08T11:35:34;16.70;;;12.90;;
15667;SDS011;7934;48.710;9.024;2024-03-08T11:38:02;20.97;;;13.67;;
15667;SDS011;7934;48.710;9.024;2024-03-08T11:40:29;17.17;;;12.83;;
15667;SDS011;7934;48.710;9.024;2024-03-08T11:42:58;18.83;;;12.27;;
15667;SDS011;7934;48.710;9.024;2024-03-08T11:45:29;19.77;;;13.47;;
15667;SDS011;7934;48.710;9.024;2024-03-08T11:47:57;21.20;;;12.90;;
15667;SDS011;7934;48.710;9.024;2024-03-08T11:50:27;18.07;;;11.83;;
15667;SDS011;7934;48.710;9.024;2024-03-08T11:52:59;17.10;;;12.60;;
15667;SDS011;7934;48.710;9.024;2024-03-08T11:55:27;16.23;;;12.17;;
15667;SDS011;7934;48.710;9.024;2024-03-08T11:57:59;19.60;;;12.70;;
15667;SDS011;7934;48.710;9.024;2024-03-08T12:00:27;18.17;;;12.90;;
15667;SDS011;7934;48.710;9.024;2024-03-08T12:03:08;18.53;;;12.23;;
15667;SDS011;7934;48.710;9.024;2024-03-08T12:05:35;20.83;;;13.83;;
15667;SDS011;7934;48.710;9.024;2024-03-08T12:08:12;17.87;;;12.73;;
15667;SDS011;7934;48.710;9.024;2024-03-08T12:10:56;17.60;;;11.50;;
15667;SDS011;7934;48.710;9.024;2024-03-08T12:13:25;17.93;;;12.73;;
15667;SDS011;7934;48.710;9.024;2024-03-08T12:15:55;17.70;;;12.13;;
15667;SDS011;7934;48.710;9.024;2024-03-08T12:18:25;19.57;;;13.03;;
15667;SDS011;7934;48.710;9.024;2024-03-08T12:21:03;20.80;;;12.43;;
15667;SDS011;7934;48.710;9.024;2024-03-08T12:23:32;21.47;;;12.27;;
15667;SDS011;7934;48.710;9.024;2024-03-08T12:26:09;16.03;;;11.97;;
15667;SDS011;7934;48.710;9.024;2024-03-08T12:28:38;21.47;;;12.13;;
15667;SDS011;7934;48.710;9.024;2024-03-08T12:31:06;14.43;;;11.93;;
15667;SDS011;7934;48.710;9.024;2024-03-08T12:33:39;16.13;;;12.13;;
15667;SDS011;7934;48.710;9.024;2024-03-08T12:36:14;17.83;;;13.23;;
15667;SDS011;7934;48.710;9.024;2024-03-08T12:38:43;18.00;;;13.30;;
15667;SDS011;7934;48.710;9.024;2024-03-08T12:41:12;21.60;;;12.93;;
15667;SDS011;7934;48.710;9.024;2024-03-08T12:43:44;21.13;;;13.30;;
15667;SDS011;7934;48.710;9.024;2024-03-08T12:46:13;18.57;;;13.37;;
15667;SDS011;7934;48.710;9.024;2024-03-08T12:48:42;19.90;;;13.77;;
15667;SDS011;7934;48.710;9.024;2024-03-08T12:51:12;20.07;;;14.70;;
15667;SDS011;7934;48.710;9.024;2024-03-08T12:53:40;19.93;;;14.17;;
15667;SDS011;7934;48.710;9.024;2024-03-08T12:56:09;19.90;;;13.13;;
15667;SDS011;7934;48.710;9.024;2024-03-08T12:58:36;22.17;;;15.13;;
15667;SDS011;7934;48.710;9.024;2024-03-08T13:01:05;19.60;;;13.50;;
15667;SDS011;7934;48.710;9.024;2024-03-08T13:03:37;17.97;;;13.53;;
15667;SDS011;7934;48.710;9.024;2024-03-08T13:06:06;19.90;;;13.60;;
15667;SDS011;7934;48.710;9.024;2024-03-08T13:08:34;20.57;;;14.43;;
15667;SDS011;7934;48.710;9.024;2024-03-08T13:11:04;20.27;;;14.27;;
15667;SDS011;7934;48.710;9.024;2024-03-08T13:13:34;17.47;;;12.23;;
15667;SDS011;7934;48.710;9.024;2024-03-08T13:16:01;18.30;;;12.90;;
15667;SDS011;7934;48.710;9.024;2024-03-08T13:18:42;22.37;;;14.83;;
15667;SDS011;7934;48.710;9.024;2024-03-08T13:23:58;25.47;;;15.80;;
15667;SDS011;7934;48.710;9.024;2024-03-08T13:26:26;22.07;;;14.37;;
15667;SDS011;7934;48.710;9.024;2024-03-08T13:28:57;20.87;;;15.07;;
15667;SDS011;7934;48.710;9.024;2024-03-08T13:31:25;21.07;;;15.17;;
15667;SDS011;7934;48.710;9.024;2024-03-08T13:33:54;23.07;;;14.60;;
15667;SDS011;7934;48.710;9.024;2024-03-08T13:36:23;22.00;;;14.57;;
15667;SDS011;7934;48.710;9.024;2024-03-08T13:38:59;21.00;;;13.10;;
15667;SDS011;7934;48.710;9.024;2024-03-08T13:41:26;20.07;;;13.63;;
15667;SDS011;7934;48.710;9.024;2024-03-08T13:43:53;18.77;;;12.33;;
15667;SDS011;7934;48.710;9.024;2024-03-08T13:46:21;21.90;;;13.97;;
15667;SDS011;7934;48.710;9.024;2024-03-08T13:48:52;23.57;;;15.33;;
15667;SDS011;7934;48.710;9.024;2024-03-08T13:51:20;23.77;;;15.70;;
15667;SDS011;7934;48.710;9.024;2024-03-08T13:53:50;21.23;;;15.20;;
15667;SDS011;7934;48.710;9.024;2024-03-08T13:56:19;20.90;;;14.57;;
15667;SDS011;7934;48.710;9.024;2024-03-08T13:58:49;21.43;;;13.70;;
15667;SDS011;7934;48.710;9.024;2024-03-08T14:01:25;22.30;;;14.67;;
15667;SDS011;7934;48.710;9.024;2024-03-08T14:03:55;23.47;;;15.30;;
15667;SDS011;7934;48.710;9.024;2024-03-08T14:06:22;20.73;;;14.37;;
15667;SDS011;7934;48.710;9.024;2024-03-08T14:08:52;22.67;;;14.93;;
15667;SDS011;7934;48.710;9.024;2024-03-08T14:11:23;24.97;;;14.73;;
15667;SDS011;7934;48.710;9.024;2024-03-08T14:13:50;22.50;;;13.43;;
15667;SDS011;7934;48.710;9.024;2024-03-08T14:16:18;21.83;;;15.20;;
15667;SDS011;7934;48.710;9.024;2024-03-08T14:18:46;25.40;;;15.80;;
15667;SDS011;7934;48.710;9.024;2024-03-08T14:21:13;22.60;;;14.53;;
15667;SDS011;7934;48.710;9.024;2024-03-08T14:23:41;23.37;;;15.37;;
15667;SDS011;7934;48.710;9.024;2024-03-08T14:28:57;28.60;;;16.93;;
15667;SDS011;7934;48.710;9.024;2024-03-08T14:31:28;25.80;;;14.80;;
15667;SDS011;7934;48.710;9.024;2024-03-08T14:33:55;23.50;;;16.47;;
15667;SDS011;7934;48.710;9.024;2024-03-08T14:36:24;25.10;;;16.50;;
15667;SDS011;7934;48.710;9.024;2024-03-08T14:38:51;21.63;;;14.33;;
15667;SDS011;7934;48.710;9.024;2024-03-08T14:41:19;27.13;;;15.70;;
15667;SDS011;7934;48.710;9.024;2024-03-08T14:43:47;24.47;;;15.47;;
15667;SDS011;7934;48.710;9.024;2024-03-08T14:46:19;24.13;;;14.23;;
15667;SDS011;7934;48.710;9.024;2024-03-08T14:48:50;24.43;;;15.60;;
15667;SDS011;7934;48.710;9.024;2024-03-08T14:51:19;27.93;;;16.47;;
15667;SDS011;7934;48.710;9.024;2024-03-08T14:53:55;23.43;;;14.87;;
15667;SDS011;7934;48.710;9.024;2024-03-08T14:56:23;24.03;;;15.87;;
15667;SDS011;7934;48.710;9.024;2024-03-08T14:58:57;22.07;;;14.27;;
15667;SDS011;7934;48.710;9.024;2024-03-08T15:01:26;24.07;;;15.27;;
15667;SDS011;7934;48.710;9.024;2024-03-08T15:03:57;24.57;;;15.73;;
15667;SDS011;7934;48.710;9.024;2024-03-08T15:06:36;23.70;;;14.80;;
15667;SDS011;7934;48.710;9.024;2024-03-08T15:09:13;24.40;;;14.07;;
15667;SDS011;7934;48.710;9.024;2024-03-08T15:11:46;25.33;;;14.63;;
15667;SDS011;7934;48.710;9.024;2024-03-08T15:14:17;33.53;;;15.30;;
15667;SDS011;7934;48.710;9.024;2024-03-08T15:16:51;26.83;;;14.93;;
15667;SDS011;7934;48.710;9.024;2024-03-08T15:19:18;23.80;;;14.53;;
15667;SDS011;7934;48.710;9.024;2024-03-08T15:21:46;20.43;;;14.27;;
15667;SDS011;7934;48.710;9.024;2024-03-08T15:24:15;26.13;;;14.40;;
15667;SDS011;7934;48.710;9.024;2024-03-08T15:26:46;25.63;;;15.43;;
15667;SDS011;7934;48.710;9.024;2024-03-08T15:29:20;23.27;;;14.37;;
15667;SDS011;7934;48.710;9.024;2024-03-08T15:31:52;23.43;;;14.33;;
15667;SDS011;7934;48.710;9.024;2024-03-08T15:34:20;24.43;;;14.80;;
15667;SDS011;7934;48.710;9.024;2024-03-08T15:36:48;27.40;;;16.33;;
15667;SDS011;7934;48.710;9.024;2024-03-08T15:39:16;24.47;;;14.30;;
15667;SDS011;7934;48.710;9.024;2024-03-08T15:41:45;22.07;;;13.67;;
15667;SDS011;7934;48.710;9.024;2024-03-08T15:44:13;26.27;;;15.77;;
15667;SDS011;7934;48.710;9.024;2024-03-08T15:46:41;26.17;;;15.90;;
15667;SDS011;7934;48.710;9.024;2024-03-08T15:49:13;27.40;;;16.07;;
15667;SDS011;7934;48.710;9.024;2024-03-08T15:51:40;28.90;;;15.80;;
15667;SDS011;7934;48.710;9.024;2024-03-08T15:54:07;28.40;;;15.73;;
15667;SDS011;7934;48.710;9.024;2024-03-08T15:56:35;24.27;;;14.80;;
15667;SDS011;7934;48.710;9.024;2024-03-08T15:59:02;28.30;;;17.17;;
15667;SDS011;7934;48.710;9.024;2024-03-08T16:01:31;27.57;;;15.47;;
15667;SDS011;7934;48.710;9.024;2024-03-08T16:03:58;26.27;;;15.53;;
15667;SDS011;7934;48.710;9.024;2024-03-08T16:06:27;29.97;;;16.37;;
15667;SDS011;7934;48.710;9.024;2024-03-08T16:08:55;27.43;;;17.03;;
15667;SDS011;7934;48.710;9.024;2024-03-08T16:11:24;34.97;;;17.20;;
15667;SDS011;7934;48.710;9.024;2024-03-08T16:13:52;27.73;;;16.97;;
15667;SDS011;7934;48.710;9.024;2024-03-08T16:16:19;27.07;;;16.43;;
15667;SDS011;7934;48.710;9.024;2024-03-08T16:18:47;27.60;;;17.00;;
15667;SDS011;7934;48.710;9.024;2024-03-08T16:21:14;26.70;;;16.33;;
15667;SDS011;7934;48.710;9.024;2024-03-08T16:23:43;28.33;;;17.63;;
15667;SDS011;7934;48.710;9.024;2024-03-08T16:26:11;28.97;;;17.07;;
15667;SDS011;7934;48.710;9.024;2024-03-08T16:28:38;26.73;;;16.97;;
15667;SDS011;7934;48.710;9.024;2024-03-08T16:31:06;30.27;;;17.33;;
15667;SDS011;7934;48.710;9.024;2024-03-08T16:33:35;30.80;;;17.57;;
15667;SDS011;7934;48.710;9.024;2024-03-08T16:36:03;25.53;;;15.60;;
15667;SDS011;7934;48.710;9.024;2024-03-08T16:38:30;26.87;;;16.00;;
15667;SDS011;7934;48.710;9.024;2024-03-08T16:41:02;29.73;;;16.53;;
15667;SDS011;7934;48.710;9.024;2024-03-08T16:43:30;24.97;;;15.53;;
15667;SDS011;7934;48.710;9.024;2024-03-08T16:45:58;29.63;;;16.90;;
15667;SDS011;7934;48.710;9.024;2024-03-08T16:48:28;26.60;;;16.60;;
15667;SDS011;7934;48.710;9.024;2024-03-08T16:50:55;27.47;;;16.17;;
15667;SDS011;7934;48.710;9.024;2024-03-08T16:53:23;26.53;;;16.83;;
15667;SDS011;7934;48.710;9.024;2024-03-08T16:55:50;28.07;;;16.20;;
15667;SDS011;7934;48.710;9.024;2024-03-08T16:58:19;25.98;;;17.90;;
15667;SDS011;7934;48.710;9.024;2024-03-08T17:00:47;28.47;;;16.47;;
15667;SDS011;7934;48.710;9.024;2024-03-08T17:03:14;28.57;;;16.77;;
15667;SDS011;7934;48.710;9.024;2024-03-08T17:05:41;26.13;;;15.60;;
15667;SDS011;7934;48.710;9.024;2024-03-08T17:08:11;26.63;;;15.93;;